createdAt,value
2023-12-12T00:00:30.111Z,2.25
2023-12-12T00:02:57.366Z,1.85
2023-12-12T00:05:25.066Z,2.08
2023-12-12T00:07:52.615Z,2.65
2023-12-12T00:10:19.879Z,1.77
2023-12-12T00:12:48.617Z,1.67
2023-12-12T00:15:16.010Z,1.75
2023-12-12T00:17:43.807Z,1.50
2023-12-12T00:20:11.659Z,1.90
2023-12-12T00:22:38.943Z,1.52
2023-12-12T00:25:06.594Z,1.63
2023-12-12T00:27:33.953Z,2.05
2023-12-12T00:30:02.700Z,3.10
2023-12-12T00:32:29.984Z,1.80
2023-12-12T00:34:57.339Z,1.30
2023-12-12T00:37:24.687Z,2.05
2023-12-12T00:39:52.061Z,1.70
2023-12-12T00:42:19.370Z,1.83
2023-12-12T00:44:46.676Z,1.75
2023-12-12T00:47:15.290Z,3.30
2023-12-12T00:49:42.568Z,2.42
2023-12-12T00:52:09.906Z,1.85
2023-12-12T00:54:37.179Z,3.72
2023-12-12T00:57:05.048Z,2.20
2023-12-12T00:59:32.314Z,2.17
2023-12-12T01:01:59.637Z,1.90
2023-12-12T01:04:28.635Z,1.80
2023-12-12T01:06:55.985Z,2.63
2023-12-12T01:09:23.260Z,2.78
2023-12-12T01:11:50.517Z,2.35
2023-12-12T01:14:17.953Z,2.10
2023-12-12T01:16:45.308Z,2.53
2023-12-12T01:19:12.947Z,2.92
2023-12-12T01:21:41.658Z,3.47
2023-12-12T01:24:08.973Z,3.25
2023-12-12T01:26:36.201Z,3.03
2023-12-12T01:29:03.458Z,2.95
2023-12-12T01:31:30.830Z,3.42
2023-12-12T01:33:58.176Z,2.80
2023-12-12T01:36:25.540Z,2.85
2023-12-12T01:38:54.253Z,2.13
2023-12-12T01:41:21.532Z,3.15
2023-12-12T01:43:48.979Z,2.70
2023-12-12T01:46:19.118Z,2.08
2023-12-12T01:48:47.590Z,1.90
2023-12-12T01:51:15.585Z,2.65
2023-12-12T01:53:46.826Z,6.93
2023-12-12T01:56:16.459Z,3.72
2023-12-12T01:58:46.340Z,2.55
2023-12-12T02:01:14.362Z,2.28
2023-12-12T02:03:41.956Z,6.07
2023-12-12T02:06:12.831Z,3.40
2023-12-12T02:08:41.862Z,2.13
2023-12-12T02:11:09.181Z,2.25
2023-12-12T02:13:38.026Z,2.47
2023-12-12T02:16:07.081Z,3.35
2023-12-12T02:18:34.416Z,3.60
2023-12-12T02:21:01.746Z,2.88
2023-12-12T02:23:30.964Z,2.38
2023-12-12T02:25:59.762Z,2.83
2023-12-12T02:28:27.275Z,3.55
2023-12-12T02:30:55.696Z,4.07
2023-12-12T02:35:50.365Z,3.42
2023-12-12T02:38:17.720Z,3.65
2023-12-12T02:40:46.397Z,4.07
2023-12-12T02:43:13.740Z,3.13
2023-12-12T02:45:41.101Z,4.05
2023-12-12T02:48:08.454Z,3.85
2023-12-12T02:50:35.722Z,4.25
2023-12-12T02:53:03.066Z,3.60
2023-12-12T02:55:30.462Z,2.83
2023-12-12T02:57:59.240Z,4.82
2023-12-12T03:00:26.635Z,3.92
2023-12-12T03:02:53.850Z,3.78
2023-12-12T03:05:21.409Z,4.65
2023-12-12T03:07:48.724Z,4.05
2023-12-12T03:10:16.186Z,4.57
2023-12-12T03:12:43.526Z,5.18
2023-12-12T03:15:12.556Z,7.32
2023-12-12T03:17:39.888Z,3.38
2023-12-12T03:20:08.694Z,4.00
2023-12-12T03:22:36.084Z,2.63
2023-12-12T03:25:03.753Z,2.90
2023-12-12T03:27:31.337Z,2.78
2023-12-12T03:29:58.801Z,2.42
2023-12-12T03:32:27.487Z,2.25
2023-12-12T03:34:54.859Z,2.38
2023-12-12T03:37:22.203Z,5.22
2023-12-12T03:39:49.638Z,2.72
2023-12-12T03:42:16.917Z,2.72
2023-12-12T03:44:44.193Z,6.25
2023-12-12T03:47:11.693Z,2.95
2023-12-12T03:49:40.519Z,3.13
2023-12-12T03:52:08.150Z,3.72
2023-12-12T03:54:35.916Z,3.60
2023-12-12T03:57:03.494Z,3.35
2023-12-12T03:59:30.848Z,2.75
2023-12-12T04:01:58.178Z,2.35
2023-12-12T04:04:25.541Z,2.88
2023-12-12T04:06:54.290Z,3.00
2023-12-12T04:09:21.636Z,3.35
2023-12-12T04:11:48.968Z,3.17
2023-12-12T04:14:16.280Z,2.70
2023-12-12T04:16:43.616Z,3.25
2023-12-12T04:19:10.985Z,3.65
2023-12-12T04:21:38.554Z,2.90
2023-12-12T04:24:08.071Z,2.88
2023-12-12T04:26:35.370Z,2.65
2023-12-12T04:29:02.670Z,3.38
2023-12-12T04:31:29.980Z,3.92
2023-12-12T04:33:57.390Z,3.15
2023-12-12T04:36:24.751Z,3.22
2023-12-12T04:38:52.038Z,3.42
2023-12-12T04:41:20.721Z,4.40
2023-12-12T04:43:48.005Z,2.13
2023-12-12T04:46:21.568Z,2.53
2023-12-12T04:48:49.287Z,3.25
2023-12-12T04:51:16.709Z,2.97
2023-12-12T04:53:44.055Z,3.28
2023-12-12T04:56:11.341Z,3.30
2023-12-12T04:58:39.991Z,3.13
2023-12-12T05:01:07.277Z,3.03
2023-12-12T05:03:34.832Z,4.20
2023-12-12T05:06:02.314Z,3.53
2023-12-12T05:08:29.805Z,3.35
2023-12-12T05:10:57.109Z,2.67
2023-12-12T05:13:24.555Z,3.78
2023-12-12T05:15:53.498Z,5.07
2023-12-12T05:18:21.192Z,3.28
2023-12-12T05:20:49.308Z,2.63
2023-12-12T05:23:17.087Z,4.15
2023-12-12T05:25:44.507Z,3.42
2023-12-12T05:28:12.087Z,3.92
2023-12-12T05:30:40.899Z,3.42
2023-12-12T05:33:09.969Z,3.28
2023-12-12T05:35:37.311Z,7.57
2023-12-12T05:38:04.607Z,2.55
2023-12-12T05:40:31.965Z,2.85
2023-12-12T05:42:59.433Z,2.72
2023-12-12T05:45:26.766Z,3.10
2023-12-12T05:47:54.292Z,3.35
2023-12-12T05:50:23.223Z,3.42
2023-12-12T05:52:50.449Z,3.40
2023-12-12T05:55:17.786Z,3.03
2023-12-12T05:57:45.083Z,3.03
2023-12-12T06:00:13.161Z,3.58
2023-12-12T06:02:40.474Z,3.88
2023-12-12T06:05:08.323Z,4.05
2023-12-12T06:07:38.258Z,3.47
2023-12-12T06:10:06.943Z,5.20
2023-12-12T06:12:34.258Z,3.67
2023-12-12T06:15:01.500Z,3.42
2023-12-12T06:17:29.094Z,4.15
2023-12-12T06:19:56.600Z,4.50
2023-12-12T06:22:23.877Z,3.75
2023-12-12T06:24:52.739Z,3.33
2023-12-12T06:27:22.469Z,3.47
2023-12-12T06:29:51.275Z,3.50
2023-12-12T06:32:18.740Z,3.10
2023-12-12T06:34:47.005Z,2.50
2023-12-12T06:37:14.373Z,2.80
2023-12-12T06:39:41.695Z,3.45
2023-12-12T06:42:10.437Z,4.00
2023-12-12T06:44:37.766Z,4.18
2023-12-12T06:47:05.207Z,4.28
2023-12-12T06:49:32.620Z,3.40
2023-12-12T06:52:00.022Z,3.35
2023-12-12T06:54:27.464Z,2.92
2023-12-12T06:56:54.771Z,4.28
2023-12-12T06:59:23.480Z,4.43
2023-12-12T07:01:50.895Z,3.67
2023-12-12T07:04:18.296Z,3.42
2023-12-12T07:06:45.700Z,4.78
2023-12-12T07:09:13.072Z,3.78
2023-12-12T07:11:40.414Z,3.80
2023-12-12T07:14:07.706Z,3.85
2023-12-12T07:16:36.427Z,3.70
2023-12-12T07:19:03.802Z,3.65
2023-12-12T07:21:31.127Z,3.30
2023-12-12T07:23:58.478Z,3.70
2023-12-12T07:26:25.826Z,3.28
2023-12-12T07:28:53.234Z,4.10
2023-12-12T07:31:20.669Z,4.13
2023-12-12T07:33:49.457Z,4.30
2023-12-12T07:36:16.813Z,4.45
2023-12-12T07:38:52.978Z,4.15
2023-12-12T07:41:20.260Z,4.32
2023-12-12T07:43:47.541Z,5.20
2023-12-12T07:46:14.961Z,4.18
2023-12-12T07:48:42.258Z,3.90
2023-12-12T07:51:12.099Z,4.70
2023-12-12T07:53:39.384Z,4.32
2023-12-12T07:56:07.850Z,3.75
2023-12-12T08:01:02.308Z,4.65
2023-12-12T08:03:29.677Z,3.78
2023-12-12T08:05:57.080Z,3.95
2023-12-12T08:08:25.754Z,4.53
2023-12-12T08:10:53.049Z,4.10
2023-12-12T08:13:20.402Z,4.20
2023-12-12T08:15:47.777Z,4.95
2023-12-12T08:18:15.128Z,4.38
2023-12-12T08:20:42.449Z,4.20
2023-12-12T08:23:09.724Z,4.85
2023-12-12T08:25:38.390Z,5.03
2023-12-12T08:28:05.755Z,3.97
2023-12-12T08:30:33.180Z,5.82
2023-12-12T08:33:00.634Z,6.40
2023-12-12T08:35:27.974Z,5.68
2023-12-12T08:37:55.339Z,4.28
2023-12-12T08:40:22.708Z,5.32
2023-12-12T08:42:51.441Z,4.53
2023-12-12T08:45:18.748Z,4.80
2023-12-12T08:47:46.046Z,5.20
2023-12-12T08:50:13.391Z,3.97
2023-12-12T08:52:40.750Z,3.47
2023-12-12T08:55:10.290Z,4.13
2023-12-12T08:57:37.664Z,3.72
2023-12-12T09:00:08.589Z,4.03
2023-12-12T09:02:35.904Z,4.22
2023-12-12T09:05:03.403Z,3.60
2023-12-12T09:07:31.003Z,6.13
2023-12-12T09:09:58.472Z,3.72
2023-12-12T09:12:25.826Z,4.50
2023-12-12T09:14:53.153Z,3.72
2023-12-12T09:17:21.883Z,3.90
2023-12-12T09:19:49.346Z,3.88
2023-12-12T09:22:16.769Z,3.45
2023-12-12T09:24:44.126Z,3.83
2023-12-12T09:27:11.447Z,3.63
2023-12-12T09:29:38.711Z,3.53
2023-12-12T09:32:06.394Z,3.65
2023-12-12T09:34:35.094Z,5.32
2023-12-12T09:37:02.497Z,3.88
2023-12-12T09:39:29.857Z,4.85
2023-12-12T09:42:01.001Z,5.53
2023-12-12T09:44:31.762Z,6.13
2023-12-12T09:47:00.052Z,3.60
2023-12-12T09:49:28.188Z,3.58
2023-12-12T09:51:57.467Z,3.72
2023-12-12T09:54:25.499Z,3.33
2023-12-12T09:56:53.931Z,3.92
2023-12-12T10:01:54.694Z,5.00
2023-12-12T10:04:23.335Z,3.30
2023-12-12T10:06:51.375Z,2.83
2023-12-12T10:09:20.208Z,3.90
2023-12-12T10:11:47.525Z,3.63
2023-12-12T10:17:03.990Z,3.10
2023-12-12T10:19:31.719Z,2.90
2023-12-12T10:22:02.263Z,3.22
2023-12-12T10:24:31.182Z,3.58
2023-12-12T10:26:58.758Z,3.53
2023-12-12T10:29:26.434Z,4.15
2023-12-12T10:31:53.811Z,6.18
2023-12-12T10:34:22.354Z,4.75
2023-12-12T10:36:50.339Z,2.90
2023-12-12T10:39:17.796Z,3.95
2023-12-12T10:41:54.434Z,4.38
2023-12-12T10:44:26.122Z,3.95
2023-12-12T10:46:54.144Z,3.95
2023-12-12T10:49:22.564Z,3.90
2023-12-12T10:51:51.016Z,4.30
2023-12-12T10:56:46.684Z,3.85
2023-12-12T10:59:56.590Z,4.40
2023-12-12T11:02:05.633Z,5.40
2023-12-12T11:07:01.176Z,4.38
2023-12-12T11:09:28.525Z,5.20
2023-12-12T11:11:56.802Z,5.68
2023-12-12T11:14:26.548Z,4.65
2023-12-12T11:16:58.977Z,4.93
2023-12-12T11:19:27.110Z,5.13
2023-12-12T11:21:54.464Z,3.63
2023-12-12T11:24:21.933Z,5.13
2023-12-12T11:26:53.435Z,4.63
2023-12-12T11:29:26.743Z,3.92
2023-12-12T11:31:57.975Z,3.38
2023-12-12T11:34:25.337Z,3.28
2023-12-12T11:36:54.000Z,3.70
2023-12-12T11:39:26.645Z,2.88
2023-12-12T11:41:53.947Z,3.25
2023-12-12T11:44:22.922Z,2.95
2023-12-12T11:46:52.927Z,3.20
2023-12-12T11:49:24.863Z,2.78
2023-12-12T11:51:52.313Z,4.55
2023-12-12T11:54:21.709Z,3.15
2023-12-12T11:56:54.907Z,3.60
2023-12-12T11:59:23.189Z,5.78
2023-12-12T12:04:19.743Z,5.20
2023-12-12T12:06:47.121Z,2.00
2023-12-12T12:09:14.674Z,1.98
2023-12-12T12:11:46.669Z,3.15
2023-12-12T12:14:14.683Z,42.08
2023-12-12T12:16:42.114Z,1.65
2023-12-12T12:19:29.996Z,1.50
2023-12-12T12:22:02.599Z,1.42
2023-12-12T12:24:30.760Z,1.17
2023-12-12T12:26:58.611Z,2.95
2023-12-12T12:29:35.357Z,1.15
2023-12-12T12:32:13.963Z,1.60
2023-12-12T12:34:45.145Z,1.05
2023-12-12T12:37:30.445Z,1.33
2023-12-12T12:39:59.958Z,1.40
2023-12-12T12:42:35.213Z,1.60
2023-12-12T12:45:02.988Z,1.23
2023-12-12T12:47:30.467Z,1.50
2023-12-12T12:49:59.534Z,1.80
2023-12-12T12:52:27.267Z,1.67
2023-12-12T12:54:54.636Z,1.80
2023-12-12T12:57:21.970Z,2.00
2023-12-12T12:59:49.239Z,2.05
2023-12-12T13:02:16.492Z,1.83
2023-12-12T13:04:43.843Z,1.67
2023-12-12T13:07:12.652Z,1.50
2023-12-12T13:09:39.913Z,2.20
2023-12-12T13:12:07.374Z,2.55
2023-12-12T13:14:34.643Z,4.13
2023-12-12T13:17:01.957Z,1.73
2023-12-12T13:19:29.371Z,2.60
2023-12-12T13:21:56.883Z,2.63
2023-12-12T13:24:25.509Z,2.13
2023-12-12T13:26:53.150Z,1.80
2023-12-12T13:29:20.526Z,2.35
2023-12-12T13:31:47.864Z,2.08
2023-12-12T13:34:15.302Z,2.60
2023-12-12T13:36:43.690Z,1.80
2023-12-12T13:41:39.305Z,2.72
2023-12-12T13:44:06.516Z,2.50
2023-12-12T13:46:34.181Z,2.72
2023-12-12T13:49:01.459Z,2.55
2023-12-12T13:51:34.571Z,3.47
2023-12-12T13:54:09.026Z,2.22
2023-12-12T13:56:36.337Z,2.42
2023-12-12T13:59:07.478Z,2.58
2023-12-12T14:01:35.634Z,3.30
2023-12-12T14:04:03.166Z,3.65
2023-12-12T14:06:30.420Z,3.35
2023-12-12T14:08:57.677Z,4.28
2023-12-12T14:11:25.006Z,3.10
2023-12-12T14:13:52.335Z,3.92
2023-12-12T14:16:28.242Z,4.25
2023-12-12T14:18:57.864Z,3.75
2023-12-12T14:21:25.248Z,3.97
2023-12-12T14:23:52.656Z,4.40
2023-12-12T14:26:19.930Z,3.90
2023-12-12T14:28:47.257Z,3.47
2023-12-12T14:31:14.830Z,4.00
2023-12-12T14:33:43.795Z,3.60
2023-12-12T14:36:11.800Z,5.07
2023-12-12T14:38:39.072Z,4.25
2023-12-12T14:41:06.724Z,4.68
2023-12-12T14:43:34.675Z,4.55
2023-12-12T14:46:02.018Z,5.20
2023-12-12T14:48:30.237Z,5.03
2023-12-12T14:50:58.964Z,4.93
2023-12-12T14:53:29.095Z,5.82
2023-12-12T14:55:56.628Z,6.25
2023-12-12T14:58:23.974Z,5.13
2023-12-12T15:00:51.434Z,8.50
2023-12-12T15:03:20.434Z,5.03
2023-12-12T15:05:49.168Z,4.80
2023-12-12T15:08:17.845Z,5.90
2023-12-12T15:10:45.275Z,5.55
2023-12-12T15:13:12.739Z,6.07
2023-12-12T15:15:40.100Z,5.20
2023-12-12T15:18:07.558Z,5.88
2023-12-12T15:20:34.857Z,6.75
2023-12-12T15:23:02.238Z,5.47
2023-12-12T15:25:36.259Z,6.63
2023-12-12T15:28:24.289Z,4.82
2023-12-12T15:30:55.209Z,5.90
2023-12-12T15:33:22.775Z,5.80
2023-12-12T15:35:50.375Z,5.65
2023-12-12T15:38:17.674Z,9.52
2023-12-12T15:40:46.492Z,5.45
2023-12-12T15:43:14.085Z,6.25
2023-12-12T15:45:41.624Z,6.85
2023-12-12T15:48:09.345Z,5.47
2023-12-12T15:50:36.872Z,5.57
2023-12-12T15:53:04.428Z,6.30
2023-12-12T15:55:31.727Z,6.53
2023-12-12T15:58:00.582Z,5.40
2023-12-12T16:00:29.307Z,5.15
2023-12-12T16:02:56.683Z,5.68
2023-12-12T16:05:24.103Z,5.68
2023-12-12T16:07:51.477Z,5.38
2023-12-12T16:10:19.004Z,6.72
2023-12-12T16:12:46.359Z,7.00
2023-12-12T16:15:15.076Z,6.53
2023-12-12T16:17:45.011Z,7.40
2023-12-12T16:20:13.411Z,8.98
2023-12-12T16:22:41.005Z,9.55
2023-12-12T16:25:08.823Z,9.00
2023-12-12T16:27:36.168Z,9.27
2023-12-12T16:30:04.785Z,10.27
2023-12-12T16:32:33.589Z,9.25
2023-12-12T16:35:01.336Z,9.95
2023-12-12T16:37:28.675Z,8.70
2023-12-12T16:39:57.241Z,9.38
2023-12-12T16:42:24.529Z,8.52
2023-12-12T16:44:52.048Z,13.50
2023-12-12T16:47:19.360Z,12.25
2023-12-12T16:49:48.018Z,11.93
2023-12-12T16:52:15.769Z,12.93
2023-12-12T16:54:43.102Z,12.52
2023-12-12T16:57:10.439Z,12.63
2023-12-12T16:59:37.717Z,10.60
2023-12-12T17:02:05.037Z,9.98
2023-12-12T17:04:32.427Z,9.23
2023-12-12T17:07:01.220Z,10.80
2023-12-12T17:09:28.485Z,10.73
2023-12-12T17:11:55.779Z,11.02
2023-12-12T17:14:23.586Z,11.05
2023-12-12T17:16:51.358Z,10.50
2023-12-12T17:19:18.986Z,11.15
2023-12-12T17:21:46.289Z,11.73
2023-12-12T17:24:14.942Z,10.40
2023-12-12T17:26:42.262Z,10.57
2023-12-12T17:29:09.588Z,10.93
2023-12-12T17:31:37.068Z,10.82
2023-12-12T17:34:04.600Z,10.27
2023-12-12T17:36:31.981Z,9.48
2023-12-12T17:38:59.261Z,11.43
2023-12-12T17:41:27.893Z,9.65
2023-12-12T17:43:55.212Z,8.90
2023-12-12T17:46:22.538Z,8.43
2023-12-12T17:48:50.053Z,9.20
2023-12-12T17:51:17.418Z,11.18
2023-12-12T17:53:44.723Z,7.78
2023-12-12T17:56:11.997Z,8.63
2023-12-12T17:58:40.715Z,8.73
2023-12-12T18:01:08.083Z,7.70
2023-12-12T18:03:35.506Z,7.72
2023-12-12T18:06:02.792Z,29.25
2023-12-12T18:08:30.151Z,23.65
2023-12-12T18:10:57.514Z,8.85
2023-12-12T18:13:24.900Z,11.57
2023-12-12T18:15:53.555Z,7.70
2023-12-12T18:18:21.019Z,8.35
2023-12-12T18:20:48.417Z,7.72
2023-12-12T18:23:15.995Z,8.90
2023-12-12T18:25:43.630Z,8.35
2023-12-12T18:28:11.156Z,9.20
2023-12-12T18:30:38.718Z,9.05
2023-12-12T18:33:11.768Z,9.38
2023-12-12T18:35:39.599Z,9.95
2023-12-12T18:38:07.064Z,8.55
2023-12-12T18:40:34.616Z,7.55
2023-12-12T18:43:01.956Z,7.07
2023-12-12T18:45:29.294Z,8.32
2023-12-12T18:47:56.808Z,8.73
2023-12-12T18:50:25.934Z,8.27
2023-12-12T18:52:53.211Z,9.48
2023-12-12T18:55:20.679Z,10.00
2023-12-12T18:57:48.021Z,8.63
2023-12-12T19:00:15.927Z,11.30
2023-12-12T19:02:43.992Z,8.52
2023-12-12T19:05:12.603Z,9.65
2023-12-12T19:07:46.013Z,9.77
2023-12-12T19:10:13.580Z,8.85
2023-12-12T19:12:42.938Z,9.77
2023-12-12T19:15:11.854Z,10.73
2023-12-12T19:17:39.651Z,8.52
2023-12-12T19:20:07.972Z,9.43
2023-12-12T19:22:35.633Z,10.50
2023-12-12T19:25:05.450Z,11.27
2023-12-12T19:27:32.975Z,10.45
2023-12-12T19:30:00.696Z,11.73
2023-12-12T19:32:28.049Z,12.25
2023-12-12T19:34:57.185Z,10.65
2023-12-12T19:37:24.862Z,10.77
2023-12-12T19:39:52.209Z,11.75
2023-12-12T19:42:20.837Z,11.20
2023-12-12T19:44:48.126Z,12.20
2023-12-12T19:47:15.771Z,10.55
2023-12-12T19:49:44.190Z,11.02
2023-12-12T19:54:38.794Z,10.15
2023-12-12T19:57:06.202Z,10.48
2023-12-12T19:59:34.842Z,10.73
2023-12-12T20:02:02.341Z,10.13
2023-12-12T20:04:29.739Z,10.00
2023-12-12T20:06:56.985Z,9.05
2023-12-12T20:09:24.361Z,10.65
2023-12-12T20:11:51.703Z,10.80
2023-12-12T20:14:18.999Z,9.60
2023-12-12T20:16:48.363Z,11.45
2023-12-12T20:19:15.756Z,9.43
2023-12-12T20:21:43.029Z,12.40
2023-12-12T20:24:10.345Z,9.82
2023-12-12T20:27:05.977Z,10.68
2023-12-12T20:29:33.354Z,10.18
2023-12-12T20:32:02.012Z,10.02
2023-12-12T20:34:29.269Z,10.48
2023-12-12T20:36:56.686Z,10.00
2023-12-12T20:39:24.044Z,10.00
2023-12-12T20:41:51.473Z,9.27
2023-12-12T20:44:18.758Z,10.45
2023-12-12T20:46:46.099Z,9.57
2023-12-12T20:49:14.988Z,7.80
2023-12-12T20:51:42.893Z,12.75
2023-12-12T20:54:10.256Z,9.50
2023-12-12T20:56:38.623Z,9.10
2023-12-12T20:59:05.859Z,8.65
2023-12-12T21:01:33.273Z,8.65
2023-12-12T21:04:00.686Z,7.47
2023-12-12T21:06:29.394Z,11.13
2023-12-12T21:08:56.702Z,14.52
2023-12-12T21:11:23.946Z,12.18
2023-12-12T21:13:51.305Z,13.15
2023-12-12T21:16:19.743Z,12.43
2023-12-12T21:18:47.372Z,12.55
2023-12-12T21:21:14.905Z,12.32
2023-12-12T21:23:43.579Z,14.43
2023-12-12T21:26:10.832Z,13.50
2023-12-12T21:28:38.174Z,13.38
2023-12-12T21:31:06.277Z,11.30
2023-12-12T21:33:34.122Z,18.92
2023-12-12T21:36:01.647Z,10.82
2023-12-12T21:38:29.785Z,10.85
2023-12-12T21:40:58.628Z,9.48
2023-12-12T21:43:25.987Z,9.88
2023-12-12T21:45:53.292Z,10.57
2023-12-12T21:48:20.680Z,8.75
2023-12-12T21:50:48.021Z,7.60
2023-12-12T21:53:15.282Z,9.80
2023-12-12T21:55:42.818Z,8.57
2023-12-12T21:58:11.477Z,8.50
2023-12-12T22:00:38.760Z,7.97
2023-12-12T22:03:06.092Z,9.35
2023-12-12T22:05:33.489Z,9.20
2023-12-12T22:08:00.883Z,9.80
2023-12-12T22:10:28.239Z,8.77
2023-12-12T22:12:55.631Z,9.85
2023-12-12T22:15:24.278Z,7.70
2023-12-12T22:17:51.523Z,9.25
2023-12-12T22:20:19.012Z,10.35
2023-12-12T22:22:46.626Z,8.05
2023-12-12T22:25:14.105Z,8.07
2023-12-12T22:27:41.406Z,8.95
2023-12-12T22:30:09.222Z,9.50
2023-12-12T22:32:37.890Z,8.95
2023-12-12T22:35:06.297Z,9.43
2023-12-12T22:37:34.278Z,9.80
2023-12-12T22:40:01.823Z,8.90
2023-12-12T22:42:29.122Z,13.73
2023-12-12T22:44:56.438Z,8.52
2023-12-12T22:47:23.674Z,9.00
2023-12-12T22:49:52.511Z,8.68
2023-12-12T22:52:19.970Z,9.88
2023-12-12T22:54:47.255Z,8.13
2023-12-12T22:57:14.579Z,8.88
2023-12-12T22:59:41.834Z,8.45
2023-12-12T23:02:09.200Z,9.60
2023-12-12T23:04:36.782Z,8.13
2023-12-12T23:07:05.650Z,9.43
2023-12-12T23:09:33.000Z,9.38
2023-12-12T23:12:00.313Z,11.13
2023-12-12T23:14:27.568Z,9.65
2023-12-12T23:16:54.968Z,8.45
2023-12-12T23:19:22.533Z,7.95
2023-12-12T23:21:49.805Z,7.95
2023-12-12T23:24:18.481Z,8.38
2023-12-12T23:26:45.809Z,7.90
2023-12-12T23:29:13.089Z,8.00
2023-12-12T23:31:40.581Z,7.70
2023-12-12T23:34:08.102Z,8.48
2023-12-12T23:36:40.123Z,7.38
2023-12-12T23:39:07.439Z,8.98
2023-12-12T23:41:41.319Z,8.20
2023-12-12T23:44:08.723Z,8.98
2023-12-12T23:46:40.751Z,8.63
2023-12-12T23:49:08.248Z,8.35
2023-12-12T23:51:35.588Z,8.20
2023-12-12T23:54:02.896Z,9.07
2023-12-12T23:56:30.246Z,9.38
2023-12-12T23:58:58.871Z,8.38
